sensor_id;sensor_type;location;lat;lon;timestamp;P1;durP1;ratioP1;P2;durP2;ratioP2
9918;SDS011;4998;51.024;13.828;2022-12-17T00:02:09;35.03;;;21.60;;
9918;SDS011;4998;51.024;13.828;2022-12-17T00:04:53;34.37;;;20.77;;
9918;SDS011;4998;51.024;13.828;2022-12-17T00:07:37;36.60;;;21.60;;
9918;SDS011;4998;51.024;13.828;2022-12-17T00:10:28;29.83;;;20.17;;
9918;SDS011;4998;51.024;13.828;2022-12-17T00:13:16;30.63;;;19.77;;
9918;SDS011;4998;51.024;13.828;2022-12-17T00:16:01;31.03;;;20.23;;
9918;SDS011;4998;51.024;13.828;2022-12-17T00:18:46;31.60;;;20.17;;
9918;SDS011;4998;51.024;13.828;2022-12-17T00:21:30;34.10;;;20.70;;
9918;SDS011;4998;51.024;13.828;2022-12-17T00:24:15;30.87;;;19.77;;
9918;SDS011;4998;51.024;13.828;2022-12-17T00:27:00;30.83;;;20.40;;
9918;SDS011;4998;51.024;13.828;2022-12-17T00:29:44;29.07;;;19.60;;
9918;SDS011;4998;51.024;13.828;2022-12-17T00:32:29;28.40;;;18.93;;
9918;SDS011;4998;51.024;13.828;2022-12-17T00:35:14;32.13;;;21.07;;
9918;SDS011;4998;51.024;13.828;2022-12-17T00:37:58;34.03;;;20.17;;
9918;SDS011;4998;51.024;13.828;2022-12-17T00:40:43;32.70;;;19.43;;
9918;SDS011;4998;51.024;13.828;2022-12-17T00:43:29;28.80;;;19.37;;
9918;SDS011;4998;51.024;13.828;2022-12-17T00:46:13;32.53;;;20.50;;
9918;SDS011;4998;51.024;13.828;2022-12-17T00:48:57;30.33;;;19.60;;
9918;SDS011;4998;51.024;13.828;2022-12-17T00:51:42;28.20;;;18.90;;
9918;SDS011;4998;51.024;13.828;2022-12-17T00:54:26;29.93;;;19.80;;
9918;SDS011;4998;51.024;13.828;2022-12-17T00:57:11;33.70;;;20.60;;
9918;SDS011;4998;51.024;13.828;2022-12-17T00:59:57;32.77;;;20.33;;
9918;SDS011;4998;51.024;13.828;2022-12-17T01:02:41;33.30;;;21.10;;
9918;SDS011;4998;51.024;13.828;2022-12-17T01:05:31;29.33;;;19.73;;
9918;SDS011;4998;51.024;13.828;2022-12-17T01:08:15;31.23;;;20.73;;
9918;SDS011;4998;51.024;13.828;2022-12-17T01:11:00;37.10;;;21.30;;
9918;SDS011;4998;51.024;13.828;2022-12-17T01:13:45;31.60;;;20.30;;
9918;SDS011;4998;51.024;13.828;2022-12-17T01:16:31;29.27;;;19.40;;
9918;SDS011;4998;51.024;13.828;2022-12-17T01:19:16;30.80;;;20.70;;
9918;SDS011;4998;51.024;13.828;2022-12-17T01:22:01;31.77;;;20.90;;
9918;SDS011;4998;51.024;13.828;2022-12-17T01:24:46;30.90;;;21.13;;
9918;SDS011;4998;51.024;13.828;2022-12-17T01:27:30;31.00;;;20.33;;
9918;SDS011;4998;51.024;13.828;2022-12-17T01:30:14;35.23;;;20.07;;
9918;SDS011;4998;51.024;13.828;2022-12-17T01:33:01;31.70;;;20.60;;
9918;SDS011;4998;51.024;13.828;2022-12-17T01:35:46;34.40;;;19.67;;
9918;SDS011;4998;51.024;13.828;2022-12-17T01:38:31;31.27;;;20.30;;
9918;SDS011;4998;51.024;13.828;2022-12-17T01:41:16;35.33;;;21.00;;
9918;SDS011;4998;51.024;13.828;2022-12-17T01:47:19;31.40;;;20.53;;
9918;SDS011;4998;51.024;13.828;2022-12-17T01:50:05;32.57;;;21.57;;
9918;SDS011;4998;51.024;13.828;2022-12-17T01:52:50;36.77;;;21.83;;
9918;SDS011;4998;51.024;13.828;2022-12-17T01:55:40;35.83;;;21.83;;
9918;SDS011;4998;51.024;13.828;2022-12-17T01:58:37;35.60;;;20.63;;
9918;SDS011;4998;51.024;13.828;2022-12-17T02:01:23;32.77;;;20.60;;
9918;SDS011;4998;51.024;13.828;2022-12-17T02:04:07;34.80;;;20.80;;
9918;SDS011;4998;51.024;13.828;2022-12-17T02:06:56;31.83;;;19.50;;
9918;SDS011;4998;51.024;13.828;2022-12-17T02:09:52;30.80;;;20.53;;
9918;SDS011;4998;51.024;13.828;2022-12-17T02:12:44;30.63;;;19.67;;
9918;SDS011;4998;51.024;13.828;2022-12-17T02:15:36;32.57;;;21.90;;
9918;SDS011;4998;51.024;13.828;2022-12-17T02:18:27;35.50;;;22.20;;
9918;SDS011;4998;51.024;13.828;2022-12-17T02:21:18;32.20;;;19.90;;
9918;SDS011;4998;51.024;13.828;2022-12-17T02:24:06;27.87;;;19.20;;
9918;SDS011;4998;51.024;13.828;2022-12-17T02:26:57;36.03;;;20.93;;
9918;SDS011;4998;51.024;13.828;2022-12-17T02:29:47;31.57;;;20.70;;
9918;SDS011;4998;51.024;13.828;2022-12-17T02:32:45;32.33;;;20.00;;
9918;SDS011;4998;51.024;13.828;2022-12-17T02:35:33;34.77;;;21.60;;
9918;SDS011;4998;51.024;13.828;2022-12-17T02:38:22;34.40;;;20.13;;
9918;SDS011;4998;51.024;13.828;2022-12-17T02:41:08;37.60;;;21.10;;
9918;SDS011;4998;51.024;13.828;2022-12-17T02:43:57;33.87;;;20.83;;
9918;SDS011;4998;51.024;13.828;2022-12-17T02:46:43;35.47;;;21.53;;
9918;SDS011;4998;51.024;13.828;2022-12-17T02:49:28;30.77;;;19.47;;
9918;SDS011;4998;51.024;13.828;2022-12-17T02:52:14;30.93;;;19.20;;
9918;SDS011;4998;51.024;13.828;2022-12-17T02:55:00;33.57;;;20.93;;
9918;SDS011;4998;51.024;13.828;2022-12-17T02:57:44;32.10;;;20.20;;
9918;SDS011;4998;51.024;13.828;2022-12-17T03:00:30;36.10;;;21.87;;
9918;SDS011;4998;51.024;13.828;2022-12-17T03:03:14;33.57;;;20.63;;
9918;SDS011;4998;51.024;13.828;2022-12-17T03:05:58;32.30;;;20.37;;
9918;SDS011;4998;51.024;13.828;2022-12-17T03:08:43;32.53;;;20.33;;
9918;SDS011;4998;51.024;13.828;2022-12-17T03:11:27;35.33;;;20.77;;
9918;SDS011;4998;51.024;13.828;2022-12-17T03:14:12;32.00;;;20.13;;
9918;SDS011;4998;51.024;13.828;2022-12-17T03:16:58;36.00;;;21.77;;
9918;SDS011;4998;51.024;13.828;2022-12-17T03:19:43;33.87;;;20.60;;
9918;SDS011;4998;51.024;13.828;2022-12-17T03:22:27;32.73;;;19.87;;
9918;SDS011;4998;51.024;13.828;2022-12-17T03:25:12;38.10;;;20.20;;
9918;SDS011;4998;51.024;13.828;2022-12-17T03:28:07;32.00;;;20.10;;
9918;SDS011;4998;51.024;13.828;2022-12-17T03:30:52;33.67;;;20.80;;
9918;SDS011;4998;51.024;13.828;2022-12-17T03:33:38;35.57;;;20.73;;
9918;SDS011;4998;51.024;13.828;2022-12-17T03:36:22;40.60;;;21.07;;
9918;SDS011;4998;51.024;13.828;2022-12-17T03:39:07;32.57;;;20.80;;
9918;SDS011;4998;51.024;13.828;2022-12-17T03:41:51;31.77;;;20.00;;
9918;SDS011;4998;51.024;13.828;2022-12-17T03:44:36;37.47;;;21.47;;
9918;SDS011;4998;51.024;13.828;2022-12-17T03:47:20;36.17;;;22.20;;
9918;SDS011;4998;51.024;13.828;2022-12-17T03:50:11;29.80;;;20.20;;
9918;SDS011;4998;51.024;13.828;2022-12-17T03:52:56;33.70;;;21.00;;
9918;SDS011;4998;51.024;13.828;2022-12-17T03:55:42;34.43;;;21.47;;
9918;SDS011;4998;51.024;13.828;2022-12-17T03:58:26;31.23;;;20.30;;
9918;SDS011;4998;51.024;13.828;2022-12-17T04:01:11;43.97;;;21.20;;
9918;SDS011;4998;51.024;13.828;2022-12-17T04:03:55;35.00;;;20.83;;
9918;SDS011;4998;51.024;13.828;2022-12-17T04:06:41;31.77;;;19.13;;
9918;SDS011;4998;51.024;13.828;2022-12-17T04:09:26;30.90;;;19.30;;
9918;SDS011;4998;51.024;13.828;2022-12-17T04:12:10;34.23;;;20.70;;
9918;SDS011;4998;51.024;13.828;2022-12-17T04:14:55;34.43;;;19.50;;
9918;SDS011;4998;51.024;13.828;2022-12-17T04:17:39;31.57;;;19.80;;
9918;SDS011;4998;51.024;13.828;2022-12-17T04:20:23;37.83;;;19.90;;
9918;SDS011;4998;51.024;13.828;2022-12-17T04:23:09;28.13;;;18.67;;
9918;SDS011;4998;51.024;13.828;2022-12-17T04:26:08;31.73;;;19.60;;
9918;SDS011;4998;51.024;13.828;2022-12-17T04:28:52;31.50;;;19.80;;
9918;SDS011;4998;51.024;13.828;2022-12-17T04:31:37;31.13;;;19.80;;
9918;SDS011;4998;51.024;13.828;2022-12-17T04:34:21;33.37;;;20.63;;
9918;SDS011;4998;51.024;13.828;2022-12-17T04:37:05;28.47;;;18.23;;
9918;SDS011;4998;51.024;13.828;2022-12-17T04:39:51;34.60;;;20.70;;
9918;SDS011;4998;51.024;13.828;2022-12-17T04:42:35;32.67;;;20.70;;
9918;SDS011;4998;51.024;13.828;2022-12-17T04:45:19;37.77;;;21.67;;
9918;SDS011;4998;51.024;13.828;2022-12-17T04:48:04;33.77;;;20.33;;
9918;SDS011;4998;51.024;13.828;2022-12-17T04:50:50;33.60;;;19.87;;
9918;SDS011;4998;51.024;13.828;2022-12-17T04:53:35;34.40;;;20.10;;
9918;SDS011;4998;51.024;13.828;2022-12-17T04:56:21;32.33;;;19.57;;
9918;SDS011;4998;51.024;13.828;2022-12-17T04:59:06;34.07;;;20.70;;
9918;SDS011;4998;51.024;13.828;2022-12-17T05:01:51;34.77;;;20.27;;
9918;SDS011;4998;51.024;13.828;2022-12-17T05:04:35;31.20;;;19.70;;
9918;SDS011;4998;51.024;13.828;2022-12-17T05:07:24;29.57;;;19.77;;
9918;SDS011;4998;51.024;13.828;2022-12-17T05:10:08;27.80;;;18.80;;
9918;SDS011;4998;51.024;13.828;2022-12-17T05:12:58;28.87;;;18.47;;
9918;SDS011;4998;51.024;13.828;2022-12-17T05:15:43;32.83;;;19.70;;
9918;SDS011;4998;51.024;13.828;2022-12-17T05:18:28;32.63;;;18.87;;
9918;SDS011;4998;51.024;13.828;2022-12-17T05:21:12;30.20;;;19.33;;
9918;SDS011;4998;51.024;13.828;2022-12-17T05:23:57;31.37;;;19.10;;
9918;SDS011;4998;51.024;13.828;2022-12-17T05:26:41;29.93;;;18.90;;
9918;SDS011;4998;51.024;13.828;2022-12-17T05:29:27;29.07;;;18.93;;
9918;SDS011;4998;51.024;13.828;2022-12-17T05:32:11;29.60;;;19.00;;
9918;SDS011;4998;51.024;13.828;2022-12-17T05:34:58;31.20;;;18.03;;
9918;SDS011;4998;51.024;13.828;2022-12-17T05:37:43;27.77;;;17.80;;
9918;SDS011;4998;51.024;13.828;2022-12-17T05:40:27;35.23;;;19.87;;
9918;SDS011;4998;51.024;13.828;2022-12-17T05:43:12;31.03;;;18.07;;
9918;SDS011;4998;51.024;13.828;2022-12-17T05:46:06;28.23;;;17.67;;
9918;SDS011;4998;51.024;13.828;2022-12-17T05:48:50;29.97;;;19.20;;
9918;SDS011;4998;51.024;13.828;2022-12-17T05:51:35;28.83;;;17.90;;
9918;SDS011;4998;51.024;13.828;2022-12-17T05:54:20;29.23;;;19.03;;
9918;SDS011;4998;51.024;13.828;2022-12-17T05:57:04;28.13;;;18.13;;
9918;SDS011;4998;51.024;13.828;2022-12-17T05:59:48;32.50;;;18.73;;
9918;SDS011;4998;51.024;13.828;2022-12-17T06:02:34;31.10;;;19.50;;
9918;SDS011;4998;51.024;13.828;2022-12-17T06:05:18;27.70;;;18.30;;
9918;SDS011;4998;51.024;13.828;2022-12-17T06:08:03;35.00;;;19.50;;
9918;SDS011;4998;51.024;13.828;2022-12-17T06:10:49;30.50;;;18.70;;
9918;SDS011;4998;51.024;13.828;2022-12-17T06:13:34;29.17;;;17.93;;
9918;SDS011;4998;51.024;13.828;2022-12-17T06:16:18;32.90;;;20.07;;
9918;SDS011;4998;51.024;13.828;2022-12-17T06:19:04;29.33;;;18.20;;
9918;SDS011;4998;51.024;13.828;2022-12-17T06:21:45;33.40;;;18.57;;
9918;SDS011;4998;51.024;13.828;2022-12-17T06:24:29;29.97;;;18.50;;
9918;SDS011;4998;51.024;13.828;2022-12-17T06:27:14;33.30;;;18.60;;
9918;SDS011;4998;51.024;13.828;2022-12-17T06:29:58;30.30;;;18.20;;
9918;SDS011;4998;51.024;13.828;2022-12-17T06:32:43;29.40;;;19.10;;
9918;SDS011;4998;51.024;13.828;2022-12-17T06:35:29;30.47;;;19.67;;
9918;SDS011;4998;51.024;13.828;2022-12-17T06:38:13;29.73;;;18.80;;
9918;SDS011;4998;51.024;13.828;2022-12-17T06:40:59;31.60;;;19.50;;
9918;SDS011;4998;51.024;13.828;2022-12-17T06:43:44;30.30;;;19.00;;
9918;SDS011;4998;51.024;13.828;2022-12-17T06:46:28;30.37;;;19.43;;
9918;SDS011;4998;51.024;13.828;2022-12-17T06:49:21;30.60;;;18.40;;
9918;SDS011;4998;51.024;13.828;2022-12-17T06:52:07;30.80;;;19.60;;
9918;SDS011;4998;51.024;13.828;2022-12-17T06:54:51;33.83;;;20.27;;
9918;SDS011;4998;51.024;13.828;2022-12-17T06:57:36;32.30;;;19.50;;
9918;SDS011;4998;51.024;13.828;2022-12-17T07:00:21;30.47;;;18.10;;
9918;SDS011;4998;51.024;13.828;2022-12-17T07:03:05;26.00;;;17.80;;
9918;SDS011;4998;51.024;13.828;2022-12-17T07:05:53;33.67;;;20.13;;
9918;SDS011;4998;51.024;13.828;2022-12-17T07:08:38;33.50;;;18.97;;
9918;SDS011;4998;51.024;13.828;2022-12-17T07:11:23;30.17;;;19.40;;
9918;SDS011;4998;51.024;13.828;2022-12-17T07:14:08;30.33;;;18.30;;
9918;SDS011;4998;51.024;13.828;2022-12-17T07:16:52;28.27;;;18.30;;
9918;SDS011;4998;51.024;13.828;2022-12-17T07:19:36;31.10;;;17.93;;
9918;SDS011;4998;51.024;13.828;2022-12-17T07:22:21;31.43;;;19.17;;
9918;SDS011;4998;51.024;13.828;2022-12-17T07:25:07;29.80;;;18.00;;
9918;SDS011;4998;51.024;13.828;2022-12-17T07:27:52;31.17;;;20.37;;
9918;SDS011;4998;51.024;13.828;2022-12-17T07:30:37;31.70;;;19.27;;
9918;SDS011;4998;51.024;13.828;2022-12-17T07:33:33;32.20;;;19.07;;
9918;SDS011;4998;51.024;13.828;2022-12-17T07:36:17;36.57;;;20.00;;
9918;SDS011;4998;51.024;13.828;2022-12-17T07:39:01;33.57;;;19.73;;
9918;SDS011;4998;51.024;13.828;2022-12-17T07:41:47;33.43;;;19.67;;
9918;SDS011;4998;51.024;13.828;2022-12-17T07:44:31;32.57;;;19.47;;
9918;SDS011;4998;51.024;13.828;2022-12-17T07:47:16;33.40;;;20.20;;
9918;SDS011;4998;51.024;13.828;2022-12-17T07:50:00;29.03;;;19.30;;
9918;SDS011;4998;51.024;13.828;2022-12-17T07:52:45;30.27;;;18.87;;
9918;SDS011;4998;51.024;13.828;2022-12-17T07:55:29;35.17;;;19.90;;
9918;SDS011;4998;51.024;13.828;2022-12-17T07:58:14;34.77;;;21.03;;
9918;SDS011;4998;51.024;13.828;2022-12-17T08:00:59;33.10;;;20.03;;
9918;SDS011;4998;51.024;13.828;2022-12-17T08:03:43;33.10;;;19.50;;
9918;SDS011;4998;51.024;13.828;2022-12-17T08:06:28;33.33;;;19.50;;
9918;SDS011;4998;51.024;13.828;2022-12-17T08:09:13;31.77;;;19.90;;
9918;SDS011;4998;51.024;13.828;2022-12-17T08:11:57;31.17;;;18.80;;
9918;SDS011;4998;51.024;13.828;2022-12-17T08:14:43;33.57;;;20.53;;
9918;SDS011;4998;51.024;13.828;2022-12-17T08:17:28;34.40;;;21.40;;
9918;SDS011;4998;51.024;13.828;2022-12-17T08:20:12;33.27;;;21.00;;
9918;SDS011;4998;51.024;13.828;2022-12-17T08:23:00;35.37;;;21.37;;
9918;SDS011;4998;51.024;13.828;2022-12-17T08:25:45;37.73;;;23.10;;
9918;SDS011;4998;51.024;13.828;2022-12-17T08:28:29;41.77;;;22.90;;
9918;SDS011;4998;51.024;13.828;2022-12-17T08:31:15;38.93;;;22.93;;
9918;SDS011;4998;51.024;13.828;2022-12-17T08:33:59;49.07;;;25.20;;
9918;SDS011;4998;51.024;13.828;2022-12-17T08:36:44;39.87;;;24.27;;
9918;SDS011;4998;51.024;13.828;2022-12-17T08:39:28;39.07;;;23.60;;
9918;SDS011;4998;51.024;13.828;2022-12-17T08:42:13;45.13;;;25.10;;
9918;SDS011;4998;51.024;13.828;2022-12-17T08:44:57;46.10;;;26.10;;
9918;SDS011;4998;51.024;13.828;2022-12-17T08:47:43;48.20;;;26.17;;
9918;SDS011;4998;51.024;13.828;2022-12-17T08:50:28;48.93;;;26.03;;
9918;SDS011;4998;51.024;13.828;2022-12-17T08:53:12;43.97;;;24.30;;
9918;SDS011;4998;51.024;13.828;2022-12-17T08:55:57;46.90;;;26.10;;
9918;SDS011;4998;51.024;13.828;2022-12-17T08:58:41;51.37;;;27.00;;
9918;SDS011;4998;51.024;13.828;2022-12-17T09:01:25;52.93;;;28.33;;
9918;SDS011;4998;51.024;13.828;2022-12-17T09:04:11;50.90;;;25.93;;
9918;SDS011;4998;51.024;13.828;2022-12-17T09:06:56;56.87;;;28.83;;
9918;SDS011;4998;51.024;13.828;2022-12-17T09:09:40;48.87;;;28.17;;
9918;SDS011;4998;51.024;13.828;2022-12-17T09:12:24;54.47;;;28.40;;
9918;SDS011;4998;51.024;13.828;2022-12-17T09:15:09;53.97;;;29.17;;
9918;SDS011;4998;51.024;13.828;2022-12-17T09:17:53;51.77;;;27.37;;
9918;SDS011;4998;51.024;13.828;2022-12-17T09:20:39;53.17;;;28.60;;
9918;SDS011;4998;51.024;13.828;2022-12-17T09:23:24;50.60;;;27.23;;
9918;SDS011;4998;51.024;13.828;2022-12-17T09:26:08;51.90;;;27.77;;
9918;SDS011;4998;51.024;13.828;2022-12-17T09:28:53;59.67;;;29.80;;
9918;SDS011;4998;51.024;13.828;2022-12-17T09:31:37;58.50;;;28.90;;
9918;SDS011;4998;51.024;13.828;2022-12-17T09:34:21;49.67;;;26.27;;
9918;SDS011;4998;51.024;13.828;2022-12-17T09:37:07;58.80;;;27.23;;
9918;SDS011;4998;51.024;13.828;2022-12-17T09:39:52;52.47;;;26.33;;
9918;SDS011;4998;51.024;13.828;2022-12-17T09:42:37;47.73;;;25.50;;
9918;SDS011;4998;51.024;13.828;2022-12-17T09:45:30;46.00;;;24.10;;
9918;SDS011;4998;51.024;13.828;2022-12-17T09:48:20;54.67;;;25.33;;
9918;SDS011;4998;51.024;13.828;2022-12-17T09:51:12;51.17;;;24.47;;
9918;SDS011;4998;51.024;13.828;2022-12-17T09:54:05;53.00;;;26.40;;
9918;SDS011;4998;51.024;13.828;2022-12-17T09:56:57;51.07;;;26.20;;
9918;SDS011;4998;51.024;13.828;2022-12-17T09:59:42;50.60;;;26.23;;
9918;SDS011;4998;51.024;13.828;2022-12-17T10:02:27;50.90;;;26.10;;
9918;SDS011;4998;51.024;13.828;2022-12-17T10:05:14;43.57;;;23.70;;
9918;SDS011;4998;51.024;13.828;2022-12-17T10:08:03;41.30;;;22.73;;
9918;SDS011;4998;51.024;13.828;2022-12-17T10:10:50;53.67;;;23.70;;
9918;SDS011;4998;51.024;13.828;2022-12-17T10:13:35;46.70;;;23.50;;
9918;SDS011;4998;51.024;13.828;2022-12-17T10:16:24;50.50;;;25.23;;
9918;SDS011;4998;51.024;13.828;2022-12-17T10:19:11;46.43;;;22.37;;
9918;SDS011;4998;51.024;13.828;2022-12-17T10:22:05;46.93;;;22.73;;
9918;SDS011;4998;51.024;13.828;2022-12-17T10:24:51;43.80;;;22.97;;
9918;SDS011;4998;51.024;13.828;2022-12-17T10:27:37;42.47;;;23.47;;
9918;SDS011;4998;51.024;13.828;2022-12-17T10:30:21;44.40;;;22.30;;
9918;SDS011;4998;51.024;13.828;2022-12-17T10:33:06;41.90;;;21.97;;
9918;SDS011;4998;51.024;13.828;2022-12-17T10:35:51;43.47;;;21.63;;
9918;SDS011;4998;51.024;13.828;2022-12-17T10:38:35;35.73;;;19.20;;
9918;SDS011;4998;51.024;13.828;2022-12-17T10:41:21;36.80;;;19.60;;
9918;SDS011;4998;51.024;13.828;2022-12-17T10:44:21;45.27;;;20.90;;
9918;SDS011;4998;51.024;13.828;2022-12-17T10:47:10;37.80;;;19.40;;
9918;SDS011;4998;51.024;13.828;2022-12-17T10:49:56;38.67;;;19.77;;
9918;SDS011;4998;51.024;13.828;2022-12-17T10:52:42;35.80;;;19.90;;
9918;SDS011;4998;51.024;13.828;2022-12-17T10:55:28;36.47;;;19.70;;
9918;SDS011;4998;51.024;13.828;2022-12-17T10:58:15;39.33;;;20.40;;
9918;SDS011;4998;51.024;13.828;2022-12-17T11:01:03;44.37;;;21.03;;
9918;SDS011;4998;51.024;13.828;2022-12-17T11:03:52;39.70;;;20.70;;
9918;SDS011;4998;51.024;13.828;2022-12-17T11:06:39;40.63;;;20.60;;
9918;SDS011;4998;51.024;13.828;2022-12-17T11:09:31;46.10;;;22.90;;
9918;SDS011;4998;51.024;13.828;2022-12-17T11:12:23;50.50;;;24.63;;
9918;SDS011;4998;51.024;13.828;2022-12-17T11:15:18;41.40;;;21.33;;
9918;SDS011;4998;51.024;13.828;2022-12-17T11:18:09;40.80;;;19.70;;
9918;SDS011;4998;51.024;13.828;2022-12-17T11:20:59;49.73;;;23.03;;
9918;SDS011;4998;51.024;13.828;2022-12-17T11:23:49;38.07;;;20.70;;
9918;SDS011;4998;51.024;13.828;2022-12-17T11:26:40;56.97;;;30.40;;
9918;SDS011;4998;51.024;13.828;2022-12-17T11:29:28;57.23;;;31.50;;
9918;SDS011;4998;51.024;13.828;2022-12-17T11:32:26;47.57;;;26.77;;
9918;SDS011;4998;51.024;13.828;2022-12-17T11:35:22;48.87;;;23.87;;
9918;SDS011;4998;51.024;13.828;2022-12-17T11:38:20;43.47;;;23.00;;
9918;SDS011;4998;51.024;13.828;2022-12-17T11:41:11;52.27;;;22.70;;
9918;SDS011;4998;51.024;13.828;2022-12-17T11:43:56;45.53;;;21.30;;
9918;SDS011;4998;51.024;13.828;2022-12-17T11:46:48;47.77;;;23.73;;
9918;SDS011;4998;51.024;13.828;2022-12-17T11:49:39;46.43;;;22.83;;
9918;SDS011;4998;51.024;13.828;2022-12-17T11:52:31;44.17;;;23.40;;
9918;SDS011;4998;51.024;13.828;2022-12-17T11:55:23;46.20;;;21.90;;
9918;SDS011;4998;51.024;13.828;2022-12-17T11:58:17;44.03;;;22.00;;
9918;SDS011;4998;51.024;13.828;2022-12-17T12:01:06;82.17;;;41.53;;
9918;SDS011;4998;51.024;13.828;2022-12-17T12:04:02;107.83;;;56.67;;
9918;SDS011;4998;51.024;13.828;2022-12-17T12:06:55;59.33;;;30.90;;
9918;SDS011;4998;51.024;13.828;2022-12-17T12:09:59;62.27;;;29.00;;
9918;SDS011;4998;51.024;13.828;2022-12-17T12:12:50;59.03;;;25.97;;
9918;SDS011;4998;51.024;13.828;2022-12-17T12:15:40;46.10;;;23.67;;
9918;SDS011;4998;51.024;13.828;2022-12-17T12:18:34;48.63;;;22.73;;
9918;SDS011;4998;51.024;13.828;2022-12-17T12:21:37;46.30;;;23.33;;
9918;SDS011;4998;51.024;13.828;2022-12-17T12:24:30;45.00;;;22.17;;
9918;SDS011;4998;51.024;13.828;2022-12-17T12:27:29;51.13;;;23.90;;
9918;SDS011;4998;51.024;13.828;2022-12-17T12:30:20;47.23;;;23.57;;
9918;SDS011;4998;51.024;13.828;2022-12-17T12:33:10;51.67;;;25.10;;
9918;SDS011;4998;51.024;13.828;2022-12-17T12:36:05;45.17;;;23.23;;
9918;SDS011;4998;51.024;13.828;2022-12-17T12:38:54;52.23;;;25.80;;
9918;SDS011;4998;51.024;13.828;2022-12-17T12:41:41;51.70;;;25.47;;
9918;SDS011;4998;51.024;13.828;2022-12-17T12:44:36;76.00;;;40.03;;
9918;SDS011;4998;51.024;13.828;2022-12-17T12:47:38;58.53;;;32.30;;
9918;SDS011;4998;51.024;13.828;2022-12-17T12:50:29;66.83;;;29.57;;
9918;SDS011;4998;51.024;13.828;2022-12-17T12:53:24;47.67;;;25.40;;
9918;SDS011;4998;51.024;13.828;2022-12-17T12:56:23;49.73;;;26.10;;
9918;SDS011;4998;51.024;13.828;2022-12-17T12:59:10;47.10;;;24.17;;
9918;SDS011;4998;51.024;13.828;2022-12-17T13:01:56;47.03;;;24.40;;
9918;SDS011;4998;51.024;13.828;2022-12-17T13:04:41;44.67;;;25.70;;
9918;SDS011;4998;51.024;13.828;2022-12-17T13:07:26;50.13;;;24.50;;
9918;SDS011;4998;51.024;13.828;2022-12-17T13:09:55;46.73;;;24.03;;
9918;SDS011;4998;51.024;13.828;2022-12-17T13:12:29;45.07;;;23.50;;
9918;SDS011;4998;51.024;13.828;2022-12-17T13:15:07;40.70;;;23.27;;
9918;SDS011;4998;51.024;13.828;2022-12-17T13:17:56;38.63;;;22.60;;
9918;SDS011;4998;51.024;13.828;2022-12-17T13:20:28;42.63;;;21.80;;
9918;SDS011;4998;51.024;13.828;2022-12-17T13:23:04;37.90;;;21.43;;
9918;SDS011;4998;51.024;13.828;2022-12-17T13:25:40;36.90;;;22.40;;
9918;SDS011;4998;51.024;13.828;2022-12-17T13:30:58;37.63;;;20.70;;
9918;SDS011;4998;51.024;13.828;2022-12-17T13:33:28;42.80;;;21.40;;
9918;SDS011;4998;51.024;13.828;2022-12-17T13:36:03;36.50;;;20.83;;
9918;SDS011;4998;51.024;13.828;2022-12-17T13:38:40;33.33;;;21.00;;
9918;SDS011;4998;51.024;13.828;2022-12-17T13:41:14;32.53;;;20.63;;
9918;SDS011;4998;51.024;13.828;2022-12-17T13:43:44;41.00;;;22.27;;
9918;SDS011;4998;51.024;13.828;2022-12-17T13:46:20;36.10;;;20.67;;
9918;SDS011;4998;51.024;13.828;2022-12-17T13:48:52;32.40;;;19.60;;
9918;SDS011;4998;51.024;13.828;2022-12-17T13:51:21;33.40;;;19.63;;
9918;SDS011;4998;51.024;13.828;2022-12-17T13:53:52;32.53;;;19.63;;
9918;SDS011;4998;51.024;13.828;2022-12-17T13:56:24;30.30;;;17.97;;
9918;SDS011;4998;51.024;13.828;2022-12-17T13:58:52;29.57;;;17.50;;
9918;SDS011;4998;51.024;13.828;2022-12-17T14:01:22;24.63;;;16.07;;
9918;SDS011;4998;51.024;13.828;2022-12-17T14:03:53;25.60;;;16.83;;
9918;SDS011;4998;51.024;13.828;2022-12-17T14:06:21;25.70;;;15.60;;
9918;SDS011;4998;51.024;13.828;2022-12-17T14:08:50;23.03;;;14.60;;
9918;SDS011;4998;51.024;13.828;2022-12-17T14:11:19;22.17;;;15.00;;
9918;SDS011;4998;51.024;13.828;2022-12-17T14:14:07;27.13;;;16.30;;
9918;SDS011;4998;51.024;13.828;2022-12-17T14:16:42;25.10;;;15.93;;
9918;SDS011;4998;51.024;13.828;2022-12-17T14:19:11;21.77;;;14.00;;
9918;SDS011;4998;51.024;13.828;2022-12-17T14:21:38;21.00;;;14.23;;
9918;SDS011;4998;51.024;13.828;2022-12-17T14:24:08;24.87;;;14.10;;
9918;SDS011;4998;51.024;13.828;2022-12-17T14:26:46;21.50;;;14.30;;
9918;SDS011;4998;51.024;13.828;2022-12-17T14:29:14;24.70;;;12.90;;
9918;SDS011;4998;51.024;13.828;2022-12-17T14:31:50;23.73;;;15.70;;
9918;SDS011;4998;51.024;13.828;2022-12-17T14:34:19;22.90;;;15.40;;
9918;SDS011;4998;51.024;13.828;2022-12-17T14:36:51;21.00;;;14.00;;
9918;SDS011;4998;51.024;13.828;2022-12-17T14:39:21;26.83;;;15.33;;
9918;SDS011;4998;51.024;13.828;2022-12-17T14:41:50;22.00;;;13.87;;
9918;SDS011;4998;51.024;13.828;2022-12-17T14:44:37;23.23;;;14.40;;
9918;SDS011;4998;51.024;13.828;2022-12-17T14:47:15;24.80;;;16.00;;
9918;SDS011;4998;51.024;13.828;2022-12-17T14:49:51;20.47;;;14.40;;
9918;SDS011;4998;51.024;13.828;2022-12-17T14:52:22;22.17;;;13.57;;
9918;SDS011;4998;51.024;13.828;2022-12-17T14:54:53;21.80;;;13.10;;
9918;SDS011;4998;51.024;13.828;2022-12-17T14:57:20;20.30;;;12.73;;
9918;SDS011;4998;51.024;13.828;2022-12-17T14:59:48;22.23;;;14.17;;
9918;SDS011;4998;51.024;13.828;2022-12-17T15:02:20;17.13;;;12.03;;
9918;SDS011;4998;51.024;13.828;2022-12-17T15:04:52;19.50;;;13.93;;
9918;SDS011;4998;51.024;13.828;2022-12-17T15:07:22;19.80;;;12.40;;
9918;SDS011;4998;51.024;13.828;2022-12-17T15:09:51;16.73;;;11.70;;
9918;SDS011;4998;51.024;13.828;2022-12-17T15:12:19;25.57;;;15.97;;
9918;SDS011;4998;51.024;13.828;2022-12-17T15:14:46;29.70;;;18.73;;
9918;SDS011;4998;51.024;13.828;2022-12-17T15:17:13;27.30;;;17.10;;
9918;SDS011;4998;51.024;13.828;2022-12-17T15:19:41;22.27;;;14.10;;
9918;SDS011;4998;51.024;13.828;2022-12-17T15:22:11;19.97;;;12.97;;
9918;SDS011;4998;51.024;13.828;2022-12-17T15:24:40;20.63;;;12.77;;
9918;SDS011;4998;51.024;13.828;2022-12-17T15:27:08;19.40;;;13.10;;
9918;SDS011;4998;51.024;13.828;2022-12-17T15:29:38;21.70;;;12.77;;
9918;SDS011;4998;51.024;13.828;2022-12-17T15:32:05;20.77;;;13.67;;
9918;SDS011;4998;51.024;13.828;2022-12-17T15:34:33;18.17;;;12.53;;
9918;SDS011;4998;51.024;13.828;2022-12-17T15:37:00;21.07;;;12.33;;
9918;SDS011;4998;51.024;13.828;2022-12-17T15:39:28;18.67;;;13.40;;
9918;SDS011;4998;51.024;13.828;2022-12-17T15:41:55;19.40;;;12.73;;
9918;SDS011;4998;51.024;13.828;2022-12-17T15:44:40;20.80;;;12.80;;
9918;SDS011;4998;51.024;13.828;2022-12-17T15:47:07;21.07;;;13.07;;
9918;SDS011;4998;51.024;13.828;2022-12-17T15:49:34;24.20;;;15.70;;
9918;SDS011;4998;51.024;13.828;2022-12-17T15:52:01;18.80;;;12.87;;
9918;SDS011;4998;51.024;13.828;2022-12-17T15:54:29;21.03;;;14.37;;
9918;SDS011;4998;51.024;13.828;2022-12-17T15:56:56;19.67;;;12.40;;
9918;SDS011;4998;51.024;13.828;2022-12-17T15:59:23;17.77;;;12.10;;
9918;SDS011;4998;51.024;13.828;2022-12-17T16:01:50;17.93;;;12.37;;
9918;SDS011;4998;51.024;13.828;2022-12-17T16:04:17;19.37;;;11.83;;
9918;SDS011;4998;51.024;13.828;2022-12-17T16:06:44;19.57;;;12.30;;
9918;SDS011;4998;51.024;13.828;2022-12-17T16:09:11;17.80;;;12.20;;
9918;SDS011;4998;51.024;13.828;2022-12-17T16:11:40;16.00;;;11.63;;
9918;SDS011;4998;51.024;13.828;2022-12-17T16:14:07;16.77;;;11.63;;
9918;SDS011;4998;51.024;13.828;2022-12-17T16:16:34;16.73;;;11.67;;